Time;durP1;ratioP1;P1;durP2;ratioP2;P2;SDS_P1;SDS_P2;PMS_P1;PMS_P2;Temp;Humidity;BMP_temperature;BMP_pressure;BME280_temperature;BME280_humidity;BME280_pressure;Samples;Min_cycle;Max_cycle;Signal;HPM_P1;HPM_P2
2022/05/24 00:02:05;;;;;;;0.10;0.10;;;14.70;99.90;;;;;;5004676;28;20490;-89
2022/05/24 00:04:31;;;;;;;0.10;0.10;;;14.60;99.90;;;;;;4980264;28;20188;-88
2022/05/24 00:06:58;;;;;;;0.10;0.10;;;14.60;99.90;;;;;;4989503;28;20223;-86
2022/05/24 00:09:26;;;;;;;0.10;0.10;;;14.50;99.90;;;;;;5005466;28;20447;-88
2022/05/24 00:11:52;;;;;;;0.10;0.10;;;14.50;99.90;;;;;;5009886;28;20454;-88
2022/05/24 00:15:19;;;;;;;0.10;0.10;;;14.50;99.90;;;;;;5004221;28;20868;-92
2022/05/24 00:17:05;;;;;;;0.10;0.10;;;14.40;99.90;;;;;;5012509;28;20652;-88
2022/05/24 00:19:30;;;;;;;0.10;0.10;;;14.50;99.90;;;;;;5009111;28;20451;-90
2022/05/24 00:21:56;;;;;;;0.20;0.20;;;14.40;99.90;;;;;;5009170;28;20451;-90
2022/05/24 00:24:21;;;;;;;0.20;0.20;;;14.40;99.90;;;;;;5009238;28;20559;-92
2022/05/24 00:26:47;;;;;;;0.20;0.20;;;14.40;99.90;;;;;;5007758;28;20575;-93
2022/05/24 00:29:12;;;;;;;0.10;0.10;;;14.30;99.90;;;;;;5008807;28;20596;-88
2022/05/24 00:31:38;;;;;;;0.10;0.10;;;14.30;99.90;;;;;;5009396;28;20801;-93
2022/05/24 00:34:03;;;;;;;0.10;0.10;;;14.30;99.90;;;;;;5009741;28;20246;-91
2022/05/24 00:36:29;;;;;;;0.10;0.10;;;14.40;99.90;;;;;;5010891;28;20184;-93
2022/05/24 00:38:54;;;;;;;0.10;0.10;;;14.30;99.90;;;;;;5010374;28;20641;-88
2022/05/24 00:41:36;;;;;;;0.10;0.10;;;14.30;99.90;;;;;;5006097;28;20272;-89
2022/05/24 00:44:06;;;;;;;0.20;0.20;;;14.40;99.90;;;;;;5007647;28;20242;-90
2022/05/24 00:46:52;;;;;;;0.20;0.20;;;14.20;99.90;;;;;;5007010;28;20482;-90
2022/05/24 00:49:32;;;;;;;0.30;0.30;;;14.20;99.90;;;;;;5012828;28;20449;-92
2022/05/24 00:52:18;;;;;;;0.20;0.20;;;14.20;99.90;;;;;;5012504;28;20454;-87
2022/05/24 00:54:44;;;;;;;0.10;0.10;;;14.20;99.90;;;;;;5012863;28;20930;-92
2022/05/24 00:57:34;;;;;;;0.17;0.17;;;14.20;99.90;;;;;;5013874;28;20438;-88
2022/05/24 01:00:03;;;;;;;0.10;0.10;;;14.10;99.90;;;;;;5009152;28;20683;-88
2022/05/24 01:02:28;;;;;;;0.20;0.20;;;14.10;99.90;;;;;;4994857;28;20569;-91
2022/05/24 01:04:54;;;;;;;0.10;0.10;;;14.10;99.90;;;;;;5012269;28;20923;-89
2022/05/24 01:07:19;;;;;;;0.20;0.20;;;14.10;99.90;;;;;;5013110;28;20196;-89
2022/05/24 01:10:00;;;;;;;0.10;0.10;;;14.10;99.90;;;;;;5012727;28;20192;-88
2022/05/24 01:12:34;;;;;;;0.10;0.10;;;14.20;99.90;;;;;;5010905;28;20247;-88
2022/05/24 01:15:03;;;;;;;0.20;0.20;;;14.10;99.90;;;;;;5007707;28;20438;-91
2022/05/24 01:17:29;;;;;;;0.10;0.10;;;14.10;99.90;;;;;;4992247;28;20447;-88
2022/05/24 01:19:55;;;;;;;0.10;0.10;;;14.10;99.90;;;;;;5010942;28;20466;-84
2022/05/24 01:22:39;;;;;;;0.10;0.10;;;14.00;99.90;;;;;;5011045;28;20455;-87
2022/05/24 01:25:43;;;;;;;0.10;0.10;;;14.10;99.90;;;;;;5008500;28;20188;-89
2022/05/24 01:28:36;;;;;;;0.10;0.10;;;14.10;99.90;;;;;;5007623;28;20454;-87
2022/05/24 01:31:03;;;;;;;0.10;0.10;;;14.10;99.90;;;;;;4998366;28;20481;-88
2022/05/24 01:36:15;;;;;;;0.20;0.20;;;14.20;99.90;;;;;;5004838;28;20439;-91
2022/05/24 01:38:52;;;;;;;0.10;0.10;;;14.10;99.90;;;;;;4996772;28;20810;-90
2022/05/24 01:41:24;;;;;;;0.10;0.10;;;14.10;99.90;;;;;;5010374;28;20443;-89
2022/05/24 01:43:54;;;;;;;0.10;0.10;;;14.10;99.90;;;;;;5009672;28;20813;-86
2022/05/24 01:46:26;;;;;;;0.10;0.10;;;14.10;99.90;;;;;;5010149;28;20967;-88
2022/05/24 01:48:56;;;;;;;0.10;0.10;;;14.00;99.90;;;;;;5010916;28;20447;-88
2022/05/24 01:51:45;;;;;;;0.10;0.10;;;14.00;99.90;;;;;;5003809;28;20454;-87
2022/05/24 01:54:12;;;;;;;0.10;0.10;;;14.00;99.90;;;;;;4998387;28;20444;-89
2022/05/24 01:57:06;;;;;;;0.10;0.10;;;14.00;99.90;;;;;;4992080;28;20472;-89
2022/05/24 01:59:32;;;;;;;0.20;0.20;;;14.00;99.90;;;;;;5007088;28;20534;-90
2022/05/24 02:02:00;;;;;;;0.10;0.10;;;14.00;99.90;;;;;;5009979;28;20478;-90
2022/05/24 02:04:28;;;;;;;0.10;0.10;;;14.00;99.90;;;;;;5007477;28;20507;-89
2022/05/24 02:07:10;;;;;;;0.10;0.10;;;14.00;99.90;;;;;;5009177;28;20487;-88
2022/05/24 02:09:39;;;;;;;0.10;0.10;;;14.10;99.90;;;;;;4995668;28;20530;-89
2022/05/24 02:12:09;;;;;;;0.30;0.30;;;14.10;99.90;;;;;;5011038;28;20578;-88
2022/05/24 02:14:39;;;;;;;0.10;0.10;;;14.00;99.90;;;;;;5009662;28;20498;-91
2022/05/24 02:17:10;;;;;;;0.10;0.10;;;14.10;99.90;;;;;;5009982;28;20443;-91
2022/05/24 02:19:39;;;;;;;0.10;0.10;;;14.10;99.90;;;;;;4998157;28;20676;-88
2022/05/24 02:22:11;;;;;;;0.10;0.10;;;14.10;99.90;;;;;;5003963;28;20542;-88
2022/05/24 02:24:36;;;;;;;0.20;0.20;;;14.10;99.90;;;;;;5011659;28;20439;-89
2022/05/24 02:27:03;;;;;;;0.20;0.20;;;14.10;99.90;;;;;;5006945;28;20902;-88
2022/05/24 02:29:30;;;;;;;0.10;0.10;;;14.00;99.90;;;;;;5001986;28;20276;-90
2022/05/24 02:31:55;;;;;;;0.10;0.10;;;14.10;99.90;;;;;;4996295;28;20459;-90
2022/05/24 02:34:21;;;;;;;0.10;0.10;;;14.00;99.90;;;;;;5011899;28;20455;-88
2022/05/24 02:36:46;;;;;;;0.20;0.20;;;14.00;99.90;;;;;;5009063;28;20184;-88
2022/05/24 02:39:12;;;;;;;0.10;0.10;;;14.10;99.90;;;;;;5010563;28;20203;-88
2022/05/24 02:41:37;;;;;;;0.10;0.10;;;14.10;99.90;;;;;;5010692;28;20188;-88
2022/05/24 02:44:07;;;;;;;0.20;0.20;;;14.00;99.90;;;;;;5008426;28;20184;-90
2022/05/24 02:46:35;;;;;;;0.10;0.10;;;14.10;99.90;;;;;;5009332;28;20255;-92
2022/05/24 02:49:01;;;;;;;0.20;0.20;;;14.10;99.90;;;;;;5008804;28;20439;-90
2022/05/24 02:51:26;;;;;;;0.10;0.10;;;14.10;99.90;;;;;;5009069;28;20447;-89
2022/05/24 02:53:53;;;;;;;0.17;0.17;;;14.10;99.90;;;;;;5004715;28;20184;-89
2022/05/24 02:56:18;;;;;;;0.10;0.10;;;14.10;99.90;;;;;;5008295;28;20279;-87
2022/05/24 02:58:44;;;;;;;0.10;0.10;;;14.10;99.90;;;;;;4993012;28;20590;-93
2022/05/24 03:01:21;;;;;;;0.10;0.10;;;14.10;99.90;;;;;;5003398;28;20919;-92
2022/05/24 03:03:49;;;;;;;0.10;0.10;;;14.20;99.90;;;;;;4994995;28;20196;-88
2022/05/24 03:06:15;;;;;;;0.10;0.10;;;14.10;99.90;;;;;;5004465;28;20599;-95
2022/05/24 03:11:25;;;;;;;0.10;0.10;;;14.10;99.90;;;;;;4998368;28;20448;-94
2022/05/24 03:16:35;;;;;;;0.10;0.10;;;14.00;99.90;;;;;;5008304;28;20226;-89
2022/05/24 03:19:01;;;;;;;0.10;0.10;;;13.90;99.90;;;;;;5010942;28;20546;-94
2022/05/24 03:21:26;;;;;;;0.10;0.10;;;13.90;99.90;;;;;;5012861;28;20232;-88
2022/05/24 03:23:52;;;;;;;0.10;0.10;;;13.90;99.90;;;;;;5012954;28;20191;-91
2022/05/24 03:26:18;;;;;;;0.10;0.10;;;13.90;99.90;;;;;;5013223;28;20212;-93
2022/05/24 03:28:46;;;;;;;0.10;0.10;;;13.90;99.90;;;;;;5012431;28;20192;-91
2022/05/24 03:31:12;;;;;;;0.10;0.10;;;13.90;99.90;;;;;;5009449;28;20451;-90
2022/05/24 03:33:38;;;;;;;0.10;0.10;;;13.80;99.90;;;;;;4994454;28;20474;-91
2022/05/24 03:36:03;;;;;;;0.20;0.20;;;13.80;99.90;;;;;;5012255;28;20559;-94
2022/05/24 03:38:29;;;;;;;0.10;0.10;;;13.80;99.90;;;;;;5007674;28;20192;-91
2022/05/24 03:40:55;;;;;;;0.10;0.10;;;13.80;99.90;;;;;;5012229;28;20215;-93
2022/05/24 03:43:21;;;;;;;0.10;0.10;;;13.80;99.90;;;;;;5012081;28;20216;-91
2022/05/24 03:45:47;;;;;;;0.10;0.10;;;13.80;99.90;;;;;;5004670;28;20534;-94
2022/05/24 03:48:13;;;;;;;0.10;0.10;;;13.80;99.90;;;;;;5000667;28;20189;-88
2022/05/24 03:50:38;;;;;;;0.10;0.10;;;13.70;99.90;;;;;;5007562;28;20443;-92
2022/05/24 03:53:04;;;;;;;0.20;0.20;;;13.70;99.90;;;;;;4998782;28;20508;-91
2022/05/24 03:55:30;;;;;;;0.10;0.10;;;13.80;99.90;;;;;;5002743;28;20987;-91
2022/05/24 03:58:02;;;;;;;0.10;0.10;;;13.80;99.90;;;;;;5010841;28;20218;-89
2022/05/24 04:00:37;;;;;;;0.10;0.10;;;13.70;99.90;;;;;;4997795;28;20176;-90
2022/05/24 04:03:04;;;;;;;0.10;0.10;;;13.70;99.90;;;;;;4991518;28;20511;-93
2022/05/24 04:05:30;;;;;;;0.10;0.10;;;13.70;99.90;;;;;;5013372;28;20472;-90
2022/05/24 04:07:57;;;;;;;0.10;0.10;;;13.60;99.90;;;;;;5009867;28;20431;-90
2022/05/24 04:10:23;;;;;;;0.10;0.10;;;13.50;99.90;;;;;;4991797;28;20497;-89
2022/05/24 04:12:50;;;;;;;0.10;0.10;;;13.60;99.90;;;;;;5007595;28;20439;-87
2022/05/24 04:15:16;;;;;;;0.10;0.10;;;13.50;99.90;;;;;;5009294;28;20853;-93
2022/05/24 04:17:42;;;;;;;0.30;0.30;;;13.50;99.90;;;;;;5008928;28;20439;-91
2022/05/24 04:20:09;;;;;;;0.30;0.30;;;13.40;99.90;;;;;;5000044;28;20454;-91
2022/05/24 04:22:35;;;;;;;0.10;0.10;;;13.40;99.90;;;;;;5000957;28;20184;-93
2022/05/24 04:25:01;;;;;;;0.10;0.10;;;13.40;99.90;;;;;;4998124;28;20975;-90
2022/05/24 04:27:26;;;;;;;0.10;0.10;;;13.40;99.90;;;;;;5000235;28;20679;-93
2022/05/24 04:29:53;;;;;;;0.10;0.10;;;13.50;99.90;;;;;;4995671;28;20438;-93
2022/05/24 04:32:19;;;;;;;0.10;0.10;;;13.40;99.90;;;;;;4999165;28;20192;-92
2022/05/24 04:34:45;;;;;;;0.10;0.10;;;13.40;99.90;;;;;;4994546;28;20448;-90
2022/05/24 04:37:10;;;;;;;0.10;0.10;;;13.50;99.90;;;;;;5003672;28;20466;-92
2022/05/24 04:39:36;;;;;;;0.10;0.10;;;13.50;99.90;;;;;;5008929;28;20180;-94
2022/05/24 04:42:23;;;;;;;0.10;0.10;;;13.60;99.90;;;;;;4990324;28;20648;-88
2022/05/24 04:44:56;;;;;;;0.10;0.10;;;13.50;99.90;;;;;;5007852;28;20428;-92
2022/05/24 04:47:23;;;;;;;0.10;0.10;;;13.50;99.90;;;;;;5008240;28;20467;-94
2022/05/24 04:49:53;;;;;;;0.10;0.10;;;13.60;99.90;;;;;;4999075;28;20619;-91
2022/05/24 04:52:20;;;;;;;0.20;0.20;;;13.60;99.90;;;;;;5010506;28;20478;-92
2022/05/24 04:54:45;;;;;;;0.30;0.30;;;13.60;99.90;;;;;;5013076;28;20478;-92
2022/05/24 04:57:13;;;;;;;0.10;0.10;;;13.50;99.90;;;;;;5012922;28;20471;-92
2022/05/24 04:59:38;;;;;;;0.40;0.40;;;13.60;99.90;;;;;;5010357;28;20185;-93
2022/05/24 05:02:05;;;;;;;0.47;0.47;;;13.60;99.90;;;;;;5010368;28;20469;-89
2022/05/24 05:04:31;;;;;;;0.77;0.77;;;13.60;99.90;;;;;;5011872;28;20192;-89
2022/05/24 05:06:56;;;;;;;0.40;0.40;;;13.70;99.90;;;;;;5009278;28;20483;-93
2022/05/24 05:09:22;;;;;;;0.10;0.10;;;13.70;99.90;;;;;;5012843;28;20210;-94
2022/05/24 05:11:48;;;;;;;0.10;0.10;;;13.70;99.90;;;;;;5015996;28;20189;-84
2022/05/24 05:14:13;;;;;;;0.10;0.10;;;13.60;99.90;;;;;;5009388;28;20526;-93
2022/05/24 05:16:40;;;;;;;0.20;0.20;;;13.70;99.90;;;;;;4994760;28;20194;-94
2022/05/24 05:19:08;;;;;;;0.20;0.20;;;13.60;99.90;;;;;;4999415;28;20212;-94
2022/05/24 05:21:35;;;;;;;0.10;0.10;;;13.60;99.90;;;;;;5014075;28;20939;-94
2022/05/24 05:24:03;;;;;;;0.10;0.10;;;13.70;99.90;;;;;;5011740;28;20473;-88
2022/05/24 05:26:28;;;;;;;0.10;0.10;;;13.60;99.90;;;;;;5003089;28;20486;-95
2022/05/24 05:28:54;;;;;;;0.10;0.10;;;13.70;99.90;;;;;;5008211;28;20447;-91
2022/05/24 05:31:24;;;;;;;0.10;0.10;;;13.60;99.90;;;;;;4998076;28;20194;-91
2022/05/24 05:33:51;;;;;;;0.10;0.10;;;13.70;99.90;;;;;;5009833;28;20180;-92
2022/05/24 05:36:18;;;;;;;0.17;0.17;;;13.70;99.90;;;;;;5009066;28;20482;-91
2022/05/24 05:38:46;;;;;;;0.10;0.10;;;13.80;99.90;;;;;;5012208;28;20504;-91
2022/05/24 05:41:17;;;;;;;0.10;0.10;;;13.80;99.90;;;;;;5011232;28;20453;-89
2022/05/24 05:43:43;;;;;;;0.10;0.10;;;13.70;99.90;;;;;;5009916;28;20498;-92
2022/05/24 05:46:09;;;;;;;0.23;0.23;;;13.70;99.90;;;;;;5012728;28;20487;-90
2022/05/24 05:48:35;;;;;;;0.10;0.10;;;13.70;99.90;;;;;;5012582;28;20423;-92
2022/05/24 05:51:01;;;;;;;0.20;0.20;;;13.60;99.90;;;;;;5001198;28;20935;-90
2022/05/24 05:53:27;;;;;;;0.20;0.20;;;13.60;99.90;;;;;;5011866;28;20439;-90
2022/05/24 05:55:53;;;;;;;0.20;0.20;;;13.60;99.90;;;;;;5007428;28;20210;-85
2022/05/24 05:58:19;;;;;;;0.20;0.20;;;13.70;99.90;;;;;;5006354;28;20807;-91
2022/05/24 06:00:47;;;;;;;0.10;0.10;;;13.70;99.90;;;;;;4993379;28;20243;-89
2022/05/24 06:03:12;;;;;;;0.10;0.10;;;13.70;99.90;;;;;;4995887;28;20212;-88
2022/05/24 06:05:38;;;;;;;0.10;0.10;;;13.70;99.90;;;;;;4993998;28;20563;-91
2022/05/24 06:08:04;;;;;;;0.10;0.10;;;13.70;99.90;;;;;;4996508;28;20668;-91
2022/05/24 06:10:29;;;;;;;0.10;0.10;;;13.70;99.90;;;;;;5012585;28;20198;-90
2022/05/24 06:12:57;;;;;;;0.10;0.10;;;13.70;99.90;;;;;;4990592;28;20939;-90
2022/05/24 06:15:25;;;;;;;0.10;0.10;;;13.70;99.90;;;;;;4995128;28;20443;-93
2022/05/24 06:17:52;;;;;;;0.10;0.10;;;13.70;99.90;;;;;;4995452;28;20451;-93
2022/05/24 06:20:21;;;;;;;0.10;0.10;;;13.70;99.90;;;;;;5013328;28;20523;-92
2022/05/24 06:22:49;;;;;;;0.10;0.10;;;13.70;99.90;;;;;;5012739;28;20962;-90
2022/05/24 06:25:19;;;;;;;0.10;0.10;;;13.70;99.90;;;;;;5011286;28;21133;-91
2022/05/24 06:27:44;;;;;;;0.10;0.10;;;13.70;99.90;;;;;;5008444;28;20459;-92
2022/05/24 06:30:11;;;;;;;0.10;0.10;;;13.70;99.90;;;;;;5009038;28;20562;-87
2022/05/24 06:32:36;;;;;;;0.20;0.20;;;13.60;99.90;;;;;;5005949;28;20189;-91
2022/05/24 06:35:02;;;;;;;0.10;0.10;;;13.60;99.90;;;;;;5000937;28;20451;-88
2022/05/24 06:37:28;;;;;;;0.10;0.10;;;13.60;99.90;;;;;;5009172;28;20192;-93
2022/05/24 06:39:53;;;;;;;0.10;0.10;;;13.60;99.90;;;;;;5001617;28;20452;-90
2022/05/24 06:42:19;;;;;;;0.10;0.10;;;13.50;99.90;;;;;;4995311;28;20189;-91
2022/05/24 06:44:44;;;;;;;0.10;0.10;;;13.50;99.90;;;;;;5005111;28;20930;-92
2022/05/24 06:47:10;;;;;;;0.10;0.10;;;13.60;99.90;;;;;;5011429;28;20219;-92
2022/05/24 06:49:36;;;;;;;0.10;0.10;;;13.70;99.90;;;;;;5011604;28;20200;-92
2022/05/24 06:52:03;;;;;;;0.10;0.10;;;13.80;99.90;;;;;;5005661;28;20195;-93
2022/05/24 06:54:29;;;;;;;0.10;0.10;;;13.90;99.90;;;;;;5006550;28;20454;-89
2022/05/24 06:56:55;;;;;;;0.20;0.20;;;14.00;99.90;;;;;;5010753;28;20457;-89
2022/05/24 07:05:06;;;;;;;0.10;0.10;;;14.60;99.90;;;;;;4992844;28;20423;-91
2022/05/24 07:07:33;;;;;;;0.10;0.10;;;14.80;99.90;;;;;;5009391;28;20465;-89
2022/05/24 07:10:00;;;;;;;0.10;0.10;;;14.80;99.90;;;;;;4993684;28;20581;-85
2022/05/24 07:12:26;;;;;;;0.20;0.20;;;14.80;99.90;;;;;;5010218;28;20438;-85
2022/05/24 07:14:52;;;;;;;0.10;0.10;;;14.80;99.90;;;;;;5010141;28;21013;-90
2022/05/24 07:17:19;;;;;;;0.10;0.10;;;14.80;99.90;;;;;;4994762;28;20442;-87
2022/05/24 07:19:46;;;;;;;0.10;0.10;;;14.70;99.90;;;;;;4994050;28;20508;-93
2022/05/24 07:22:13;;;;;;;0.10;0.10;;;14.70;99.90;;;;;;5009881;28;20443;-91
2022/05/24 07:24:39;;;;;;;0.10;0.10;;;14.70;99.90;;;;;;5007123;28;20442;-89
2022/05/24 07:27:09;;;;;;;0.20;0.20;;;14.80;99.90;;;;;;4981581;28;20476;-94
2022/05/24 07:29:35;;;;;;;0.10;0.10;;;14.80;99.90;;;;;;5003124;28;20483;-88
2022/05/24 07:32:00;;;;;;;0.10;0.10;;;14.70;99.90;;;;;;5007201;28;20471;-89
2022/05/24 07:34:26;;;;;;;0.10;0.10;;;14.80;99.90;;;;;;5003914;28;20779;-87
2022/05/24 07:36:51;;;;;;;0.10;0.10;;;14.90;99.90;;;;;;5007842;28;20195;-89
2022/05/24 07:39:20;;;;;;;0.10;0.10;;;14.90;99.90;;;;;;5007668;28;20180;-87
2022/05/24 07:47:14;;;;;;;0.10;0.10;;;15.40;99.90;;;;;;5006692;28;20486;-90
2022/05/24 07:49:40;;;;;;;0.10;0.10;;;15.40;99.90;;;;;;5006047;28;21018;-89
2022/05/24 07:52:06;;;;;;;0.10;0.10;;;15.40;99.90;;;;;;5001651;28;20200;-90
2022/05/24 07:54:32;;;;;;;0.10;0.10;;;15.60;99.90;;;;;;5005748;28;20200;-86
2022/05/24 07:56:58;;;;;;;0.10;0.10;;;15.40;99.90;;;;;;5004697;28;20648;-88
2022/05/24 07:59:23;;;;;;;0.10;0.10;;;15.40;99.90;;;;;;5007934;28;20440;-86
2022/05/24 08:01:49;;;;;;;0.10;0.10;;;15.20;99.90;;;;;;5003654;28;20711;-84
2022/05/24 08:04:15;;;;;;;0.10;0.10;;;15.20;99.90;;;;;;5006887;28;20203;-84
2022/05/24 08:06:41;;;;;;;0.10;0.10;;;15.00;99.90;;;;;;5005269;28;20231;-90
2022/05/24 08:09:07;;;;;;;0.10;0.10;;;14.90;99.90;;;;;;4983427;28;20458;-90
2022/05/24 08:11:33;;;;;;;0.10;0.10;;;14.80;99.90;;;;;;5006791;28;20215;-83
2022/05/24 08:13:59;;;;;;;0.10;0.10;;;14.80;99.90;;;;;;4988301;28;20192;-85
2022/05/24 08:16:28;;;;;;;0.10;0.10;;;14.70;99.90;;;;;;5011777;28;20187;-86
2022/05/24 08:18:53;;;;;;;0.10;0.10;;;14.70;99.90;;;;;;5008919;28;20263;-85
2022/05/24 08:21:19;;;;;;;0.10;0.10;;;14.70;99.90;;;;;;5008070;28;20538;-84
2022/05/24 08:23:48;;;;;;;0.10;0.10;;;14.70;99.90;;;;;;4987702;28;20188;-92
2022/05/24 08:26:13;;;;;;;0.10;0.10;;;14.70;99.90;;;;;;4989060;28;20212;-89
2022/05/24 08:28:41;;;;;;;0.20;0.20;;;14.60;99.90;;;;;;5003191;28;20449;-89
2022/05/24 08:31:08;;;;;;;0.10;0.10;;;14.60;99.90;;;;;;4987706;28;20597;-85
2022/05/24 08:33:34;;;;;;;0.10;0.10;;;14.60;99.90;;;;;;4971917;28;20447;-88
2022/05/24 08:36:00;;;;;;;0.10;0.10;;;14.60;99.90;;;;;;5001230;28;20963;-88
2022/05/24 08:38:28;;;;;;;0.10;0.10;;;14.60;99.90;;;;;;5000066;28;20454;-93
2022/05/24 08:40:58;;;;;;;0.10;0.10;;;14.70;99.90;;;;;;4978417;28;20212;-93
2022/05/24 08:48:22;;;;;;;0.10;0.10;;;14.80;99.90;;;;;;4998072;28;20428;-90
2022/05/24 08:49:30;;;;;;;0.10;0.10;;;15.10;99.90;;;;;;5006565;28;20451;-86
2022/05/24 08:52:04;;;;;;;0.10;0.10;;;15.20;99.90;;;;;;5002858;28;20447;-84
2022/05/24 08:54:46;;;;;;;0.10;0.10;;;15.20;99.90;;;;;;5007551;28;20224;-94
2022/05/24 08:57:14;;;;;;;0.10;0.10;;;15.20;99.90;;;;;;4985991;28;20478;-92
2022/05/24 08:59:45;;;;;;;0.10;0.10;;;15.40;99.90;;;;;;5004102;28;20489;-89
2022/05/24 09:02:10;;;;;;;0.10;0.10;;;15.50;99.90;;;;;;5009075;28;20486;-84
2022/05/24 09:04:36;;;;;;;0.10;0.10;;;15.60;99.90;;;;;;4992511;28;20917;-86
2022/05/24 09:07:08;;;;;;;0.10;0.10;;;15.70;99.90;;;;;;4990841;28;20215;-82
2022/05/24 09:09:39;;;;;;;0.10;0.10;;;15.80;99.90;;;;;;5004799;28;20181;-86
2022/05/24 09:12:10;;;;;;;0.10;0.10;;;15.70;99.90;;;;;;5015230;28;20993;-94
2022/05/24 09:14:54;;;;;;;0.10;0.10;;;15.60;99.90;;;;;;4995039;28;20495;-86
2022/05/24 09:17:50;;;;;;;0.10;0.10;;;15.80;99.90;;;;;;5012537;28;20439;-85
2022/05/24 09:20:25;;;;;;;0.10;0.10;;;16.20;99.90;;;;;;5011776;28;20481;-93
2022/05/24 09:22:53;;;;;;;0.10;0.10;;;16.50;99.90;;;;;;4996837;28;20512;-87
2022/05/24 09:25:22;;;;;;;0.10;0.10;;;16.30;99.90;;;;;;5015359;28;20442;-82
2022/05/24 09:27:53;;;;;;;0.10;0.10;;;16.30;99.90;;;;;;4994770;28;20442;-84
2022/05/24 09:30:29;;;;;;;0.10;0.10;;;16.20;99.90;;;;;;5004979;28;20531;-88
2022/05/24 09:33:19;;;;;;;0.10;0.10;;;16.10;99.90;;;;;;5014334;28;20442;-83
2022/05/24 09:35:45;;;;;;;0.10;0.10;;;16.10;99.90;;;;;;5013723;28;20975;-84
2022/05/24 09:38:16;;;;;;;0.10;0.10;;;16.20;99.90;;;;;;5013185;28;20488;-91
2022/05/24 09:41:02;;;;;;;0.10;0.10;;;16.30;99.90;;;;;;5011331;28;20652;-84
2022/05/24 09:43:35;;;;;;;0.10;0.10;;;16.40;99.90;;;;;;4991758;28;20452;-90
2022/05/24 09:46:06;;;;;;;0.10;0.10;;;16.50;99.90;;;;;;4993827;28;20475;-88
2022/05/24 09:48:35;;;;;;;0.10;0.10;;;16.50;99.90;;;;;;5012334;28;20889;-87
2022/05/24 09:51:03;;;;;;;0.10;0.10;;;16.50;99.90;;;;;;5011933;28;20477;-89
2022/05/24 09:53:31;;;;;;;0.10;0.10;;;16.50;99.90;;;;;;5011220;28;20535;-89
2022/05/24 09:55:59;;;;;;;0.10;0.10;;;16.40;99.90;;;;;;4992896;28;20462;-85
2022/05/24 09:58:34;;;;;;;0.10;0.10;;;16.20;99.90;;;;;;5003767;28;20525;-88
2022/05/24 10:01:11;;;;;;;0.10;0.10;;;16.00;99.90;;;;;;5007773;28;21085;-92
2022/05/24 10:03:40;;;;;;;0.10;0.10;;;15.90;99.90;;;;;;5011219;28;20450;-87
2022/05/24 10:06:11;;;;;;;0.10;0.10;;;16.00;99.90;;;;;;4995329;28;20528;-88
2022/05/24 10:08:49;;;;;;;0.10;0.10;;;16.10;99.90;;;;;;5012711;28;21005;-86
2022/05/24 10:11:40;;;;;;;0.10;0.10;;;16.10;99.90;;;;;;5011992;28;20431;-87
2022/05/24 10:14:23;;;;;;;0.10;0.10;;;16.20;99.90;;;;;;4992819;28;20450;-92
2022/05/24 10:17:19;;;;;;;0.10;0.10;;;16.40;99.90;;;;;;5004484;28;20435;-91
2022/05/24 10:20:14;;;;;;;0.10;0.10;;;16.40;99.90;;;;;;5011882;28;20435;-91
2022/05/24 10:23:23;;;;;;;0.10;0.10;;;17.00;99.90;;;;;;4973892;28;20491;-89
2022/05/24 10:26:10;;;;;;;0.10;0.10;;;17.10;99.90;;;;;;4896895;29;20496;-84
2022/05/24 10:29:03;;;;;;;0.00;0.00;;;17.10;99.90;;;;;;4902025;29;20453;-91
2022/05/24 10:31:49;;;;;;;0.10;0.10;;;17.10;99.90;;;;;;4985979;28;20458;-89
2022/05/24 10:38:19;;;;;;;0.10;0.10;;;17.20;99.90;;;;;;4999884;28;20505;-88
2022/05/24 10:41:02;;;;;;;0.10;0.10;;;17.10;99.90;;;;;;4993494;28;20443;-88
2022/05/24 10:43:39;;;;;;;0.00;0.00;;;16.80;99.90;;;;;;5003136;28;20441;-82
2022/05/24 10:46:15;;;;;;;0.10;0.10;;;16.60;99.90;;;;;;5001546;28;20494;-83
2022/05/24 10:49:03;;;;;;;0.10;0.10;;;16.40;99.90;;;;;;4993073;28;20450;-87
2022/05/24 10:51:32;;;;;;;0.10;0.10;;;16.50;99.90;;;;;;4993193;28;20439;-86
2022/05/24 10:54:10;;;;;;;0.00;0.00;;;16.90;99.90;;;;;;5006058;28;20590;-88
2022/05/24 10:56:51;;;;;;;0.10;0.10;;;17.10;99.90;;;;;;5010427;28;20502;-87
2022/05/24 10:59:22;;;;;;;0.10;0.10;;;17.30;99.90;;;;;;5000704;28;20537;-87
2022/05/24 11:01:56;;;;;;;0.00;0.00;;;17.30;99.90;;;;;;5008095;28;20481;-86
2022/05/24 11:04:34;;;;;;;0.10;0.10;;;17.30;99.90;;;;;;5008816;28;20447;-88
2022/05/24 11:07:13;;;;;;;0.10;0.10;;;17.10;99.90;;;;;;5005547;28;20487;-90
2022/05/24 11:09:46;;;;;;;0.10;0.10;;;16.90;99.90;;;;;;4981078;28;20750;-91
2022/05/24 11:12:29;;;;;;;0.10;0.10;;;16.80;99.90;;;;;;5007113;28;20561;-93
2022/05/24 11:15:04;;;;;;;0.10;0.10;;;16.60;99.90;;;;;;4985996;28;20451;-95
2022/05/24 11:17:29;;;;;;;0.10;0.10;;;16.40;99.90;;;;;;5012889;28;20469;-89
2022/05/24 11:19:56;;;;;;;0.10;0.10;;;16.20;99.90;;;;;;5002049;28;20478;-90
2022/05/24 11:22:46;;;;;;;0.10;0.10;;;16.00;99.90;;;;;;5009533;28;20185;-89
2022/05/24 11:25:28;;;;;;;0.10;0.10;;;15.80;99.90;;;;;;5011524;28;20521;-91
2022/05/24 11:28:17;;;;;;;0.10;0.10;;;15.80;99.90;;;;;;5008045;28;20439;-92
2022/05/24 11:30:42;;;;;;;0.10;0.10;;;15.80;99.90;;;;;;5008323;28;20463;-85
2022/05/24 11:33:11;;;;;;;0.10;0.10;;;15.90;99.90;;;;;;5010196;28;20423;-85
2022/05/24 11:35:43;;;;;;;0.10;0.10;;;16.00;99.90;;;;;;5008596;28;20554;-86
2022/05/24 11:38:16;;;;;;;0.10;0.10;;;16.30;99.90;;;;;;4992784;28;20458;-88
2022/05/24 11:40:54;;;;;;;0.10;0.10;;;16.50;99.90;;;;;;5009890;28;20530;-88
2022/05/24 11:43:34;;;;;;;0.10;0.10;;;16.80;99.90;;;;;;4989231;28;20452;-90
2022/05/24 11:46:03;;;;;;;0.10;0.10;;;17.00;99.90;;;;;;4997432;28;20556;-87
2022/05/24 11:48:38;;;;;;;0.10;0.10;;;17.00;99.90;;;;;;5008901;28;20908;-87
2022/05/24 11:51:29;;;;;;;0.10;0.10;;;17.00;99.90;;;;;;5009870;28;20493;-86
2022/05/24 11:53:55;;;;;;;0.10;0.10;;;16.90;99.90;;;;;;4992192;28;20474;-85
2022/05/24 11:56:24;;;;;;;0.10;0.10;;;16.90;99.90;;;;;;5009820;28;20450;-85
2022/05/24 11:58:55;;;;;;;0.10;0.10;;;17.00;99.90;;;;;;4997080;28;20192;-87
2022/05/24 12:01:23;;;;;;;0.10;0.10;;;16.70;99.90;;;;;;4991872;28;20482;-86
2022/05/24 12:09:58;;;;;;;0.10;0.10;;;15.70;99.90;;;;;;5006047;28;20463;-84
2022/05/24 12:12:45;;;;;;;0.10;0.10;;;15.10;99.90;;;;;;4989684;28;20576;-85
2022/05/24 12:15:46;;;;;;;0.10;0.10;;;14.80;99.90;;;;;;5006774;28;20962;-85
2022/05/24 12:18:19;;;;;;;0.10;0.10;;;14.50;99.90;;;;;;4979436;28;20505;-85
2022/05/24 12:20:46;;;;;;;0.10;0.10;;;14.50;99.90;;;;;;4990844;28;20434;-85
2022/05/24 12:23:35;;;;;;;0.10;0.10;;;14.50;99.90;;;;;;4992182;28;20450;-86
2022/05/24 12:26:05;;;;;;;0.10;0.10;;;14.60;99.90;;;;;;4988670;28;20518;-85
2022/05/24 12:28:37;;;;;;;0.10;0.10;;;14.60;99.90;;;;;;5005836;28;20471;-87
2022/05/24 12:31:18;;;;;;;0.10;0.10;;;14.60;99.90;;;;;;4992450;28;20798;-85
2022/05/24 12:33:49;;;;;;;0.10;0.10;;;14.60;99.90;;;;;;4995256;28;20442;-85
2022/05/24 12:36:41;;;;;;;0.10;0.10;;;14.70;99.90;;;;;;5007873;28;20443;-85
2022/05/24 12:39:06;;;;;;;0.10;0.10;;;14.80;99.90;;;;;;5005240;28;20602;-82
2022/05/24 12:41:41;;;;;;;0.10;0.10;;;14.90;99.90;;;;;;5006580;28;20553;-85
2022/05/24 12:44:14;;;;;;;0.10;0.10;;;14.80;99.90;;;;;;4995939;28;20211;-85
2022/05/24 12:46:42;;;;;;;0.10;0.10;;;14.80;99.90;;;;;;5014240;28;20597;-84
2022/05/24 12:49:17;;;;;;;0.10;0.10;;;14.90;99.90;;;;;;5008369;28;20435;-83
2022/05/24 12:51:43;;;;;;;0.10;0.10;;;14.80;99.90;;;;;;5005138;28;20592;-84
2022/05/24 12:54:28;;;;;;;0.10;0.10;;;14.90;99.90;;;;;;5012252;28;20451;-84
2022/05/24 12:56:57;;;;;;;0.10;0.10;;;14.90;99.90;;;;;;4994629;28;20492;-87
2022/05/24 12:59:36;;;;;;;0.10;0.10;;;14.90;99.90;;;;;;4994867;28;20812;-86
2022/05/24 13:02:21;;;;;;;0.10;0.10;;;14.90;99.90;;;;;;5015204;28;20485;-86
2022/05/24 13:04:47;;;;;;;0.10;0.10;;;15.00;99.90;;;;;;4976508;28;20432;-86
2022/05/24 13:07:39;;;;;;;0.20;0.20;;;14.90;99.90;;;;;;4995439;28;20480;-84
2022/05/24 13:10:19;;;;;;;0.10;0.10;;;14.80;99.90;;;;;;4981953;28;20473;-86
2022/05/24 13:12:52;;;;;;;0.10;0.10;;;15.20;99.90;;;;;;5009158;28;21263;-87
2022/05/24 13:15:21;;;;;;;0.10;0.10;;;15.50;99.90;;;;;;5008398;28;20454;-87
2022/05/24 13:17:52;;;;;;;0.10;0.10;;;16.00;99.90;;;;;;5007441;28;20468;-87
2022/05/24 13:20:17;;;;;;;0.10;0.10;;;16.20;99.90;;;;;;5008886;28;20454;-89
2022/05/24 13:22:52;;;;;;;0.10;0.10;;;16.80;99.90;;;;;;4988069;28;20450;-88
2022/05/24 13:25:17;;;;;;;0.00;0.00;;;17.30;99.90;;;;;;5009145;28;20679;-91
2022/05/24 13:28:06;;;;;;;0.10;0.10;;;17.90;99.90;;;;;;5013874;28;20451;-83
2022/05/24 13:33:44;;;;;;;0.10;0.10;;;17.70;99.90;;;;;;5009892;28;20445;-83
2022/05/24 13:36:13;;;;;;;0.10;0.10;;;17.30;99.90;;;;;;5009198;28;21239;-86
2022/05/24 13:38:40;;;;;;;0.10;0.10;;;17.10;99.90;;;;;;5010223;28;20798;-83
2022/05/24 13:41:08;;;;;;;0.10;0.10;;;16.90;99.90;;;;;;5006863;28;20926;-85
2022/05/24 13:43:41;;;;;;;0.10;0.10;;;16.70;99.90;;;;;;4993347;28;20557;-81